Terrell, TX

12:54 PM CDT on July 07, 2015 (GMT -0500)
APRSWXNET | | Change Station
CLOSE
Current Station
Personal Weather Station
Location: Terrell, TX
Elevation: 505 ft
Nearby Weather Stations

Elev 505 ft 32.80 °N, 96.30 °W | Updated 28 minutes ago

Mostly Cloudy
Mostly Cloudy
87 °F
Feels Like 96 °F
N
16
Wind Variable Wind from SSW
Gusts 26.0 mph

Today
High -- | Low -- °F
--% Chance of Precip.
Yesterday
High -- | Low -- °F
Precip. -- in
6:23 AM 8:36 PM
Waning Gibbous, 63% visible
Pressure 29.98 in
Visibility 9.0 miles
Clouds Few 3300 ft
Scattered Clouds 4000 ft
Scattered Clouds 4800 ft
Heat Index 96 °F
Dew Point 75 °F
Humidity 67%
Rainfall in
Snow Depth Not available.
UV 9 out of 12
Pollen 4.50 out of 12
Air Quality Not available.
Flu Activity Not available.
METAR KTRL 071653Z AUTO 20016G23KT 9SM FEW033 SCT040 SCT048 31/23 A3000 RMK AO2 SLP151 T03060228

More Conditions Fewer Conditions

Pressure 29.98 in
Visibility 9.0 miles
Clouds Few 3300 ft
Scattered Clouds 4000 ft
Scattered Clouds 4800 ft
Heat Index 96 °F
Dew Point 75 °F
Humidity 67%
Rainfall in
Snow Depth Not available.
UV 9 out of 12
Pollen 4.50 out of 12
Air Quality Not available.
Flu Activity Not available.
METAR KTRL 071653Z AUTO 20016G23KT 9SM FEW033 SCT040 SCT048 31/23 A3000 RMK AO2 SLP151 T03060228

More Conditions Fewer Conditions

Nowcast | as of 12:14 PM CDT on July 7, 2015

An area of showers with scattered thunderstorms will continue to affect areas mainly west of a line from Bridgeport...to Mineral Wells...to Comanche through 3 PM. Locally heavy rains may occur from Breckenridge to Comanche where additional amounts between a half inch to an inch are possible through mid afternoon. Widely scattered showers and thunderstorms are possible elsewhere. Cloud to ground lightning and gusty winds may accompany stronger thunderstorms later this afternoon. Otherwise...mostly cloudy and humid conditions will prevail across much of the area this afternoon. High temperatures will range from near 80 degrees west to the lower 90s southeast.

×

10-Day Weather Forecast

×

Almanac

Astronomy

Jul. 07, 2015 Rise Set
Actual Time
Civil Twilight
Nautical Twilight
Astronomical Twilight
Moon
Length of Visible Light
Length of Day
Tomorrow will be .
, % of the Moon is Illuminated

Today's Extremes

State Highs State Lows

Community

WunderPhotos

Upload Photos

1,835,858 photos uploaded!

WunderBlogs® & News

Nearby

Air Quality

  Air Quality AQ Index Pollutant
Not available.

Snow Depth

Station Depth Elevation

Earthquake Activity

City Distance Mag. Time & Date
Minimum magnitude displayed is 2.5.

Coastal Water Temperatures

Place Temperature

Stations

Nearby Weather Stations

Station Location Temp. Windchill Dew Point Humidity Wind Precip. Elev Updated Type